109 Hyodong Chemi — D7CA — position and weather

sailwx.info

Track history (hours):
 
Tides and Currents Weather Stations Pressure Air Temp Water Temp Dewpoint Dewpoint Depression Visibility Wind Speed Wind Dir Waves Ship Positions

109 Hyodong Chemi

Last reported at 2018-Jan-21 15:08 UTC. Time now 2018-Jan-23 07:59 UTC.
Position N 34°03' E 129°59'.

Length 87 m; draft 6.5 m.

Type: Tanker. MMSI: 440351000.

Date/timePositionNaut miles runAvg speedWind from/ knotsBaromVisibWave heightAir tempDewpointWater temp
2018-Jan-21 15:08N 34°03' E 129°59'110.4
2018-Jan-21 15:00N 34°03' E 130°01'510.6
2018-Jan-21 14:30N 34°03' E 130°07'510.6
2018-Jan-21 14:00N 34°03' E 130°14'510.6
2018-Jan-21 13:31N 34°03' E 130°20'510.8
2018-Jan-21 13:00N 34°04' E 130°27'510.7
2018-Jan-21 12:30N 34°03' E 130°33'510.7
2018-Jan-21 12:00N 34°03' E 130°39'510.5
2018-Jan-21 11:30N 34°03' E 130°46'510.1
2018-Jan-21 11:00N 34°01' E 130°51'4 8.3
2018-Jan-21 10:30N 33°57' E 130°52'3 7.0
2018-Jan-21 10:00N 33°55' E 130°56'4 7.3
2018-Jan-21 09:30N 33°58' E 130°58'4 7.6
2018-Jan-21 09:00N 33°58' E 131°02'5 9.9
2018-Jan-21 08:30N 33°55' E 131°07'5 9.8
2018-Jan-21 08:00N 33°52' E 131°12'510.1
2018-Jan-21 07:30N 33°51' E 131°18'510.2
2018-Jan-21 07:00N 33°50' E 131°24'510.2
2018-Jan-21 06:30N 33°48' E 131°30'5 9.8
2018-Jan-21 06:00N 33°48' E 131°36'5 9.6
2018-Jan-21 05:30N 33°46' E 131°41'4 8.8
2018-Jan-21 05:00N 33°44' E 131°45'5 9.9
2018-Jan-21 04:30N 33°39' E 131°48'5 9.8
2018-Jan-21 04:00N 33°35' E 131°50'5 9.3
2018-Jan-21 03:30N 33°30' E 131°50'510.7
2018-Jan-21 03:00N 33°26' E 131°46'511.0
2018-Jan-21 02:30N 33°21' E 131°43'510.4
2018-Jan-21 02:00N 33°16' E 131°40'0 0.9
2018-Jan-21 01:28N 33°16' E 131°40'0 0.0
2018-Jan-21 00:55N 33°16' E 131°40'0 0.0
2018-Jan-21 00:28N 33°16' E 131°40'0 0.0
2018-Jan-20 23:55N 33°16' E 131°40'0 0.0
2018-Jan-20 23:28N 33°16' E 131°40'0 0.0
2018-Jan-20 22:58N 33°16' E 131°40'0 0.0
2018-Jan-20 22:28N 33°16' E 131°40'0 0.0
2018-Jan-20 21:55N 33°16' E 131°40'0 0.0
2018-Jan-20 21:28N 33°16' E 131°40'0 0.0
2018-Jan-20 20:55N 33°16' E 131°40'0 0.0
2018-Jan-20 20:22N 33°16' E 131°40'0 0.0
2018-Jan-20 19:58N 33°16' E 131°40'0 0.0
2018-Jan-20 19:16N 33°16' E 131°40'0 0.0
2018-Jan-20 18:58N 33°16' E 131°40'0 0.0
2018-Jan-20 18:25N 33°16' E 131°40'0 0.0
2018-Jan-20 17:58N 33°16' E 131°40'0 0.0
2018-Jan-20 17:25N 33°16' E 131°40'0 0.0
2018-Jan-20 16:58N 33°16' E 131°40'0 0.0
2018-Jan-20 16:28N 33°16' E 131°40'0 0.0
2018-Jan-20 15:58N 33°16' E 131°40'0 0.0
2018-Jan-20 15:22N 33°16' E 131°40'0 0.0
2018-Jan-20 14:55N 33°16' E 131°40'0 0.0
2018-Jan-20 14:28N 33°16' E 131°40'0 0.0
2018-Jan-20 13:58N 33°16' E 131°40'0 0.0
2018-Jan-20 13:22N 33°16' E 131°40'0 0.0
2018-Jan-20 12:58N 33°16' E 131°40'0 0.0
2018-Jan-20 12:28N 33°16' E 131°40'0 0.0
2018-Jan-20 11:58N 33°16' E 131°40'0 0.0
2018-Jan-20 11:28N 33°16' E 131°40'0 0.0
2018-Jan-20 10:58N 33°16' E 131°40'0 0.0
2018-Jan-20 10:28N 33°16' E 131°40'0 0.0
2018-Jan-20 09:55N 33°16' E 131°40'0 0.0
2018-Jan-20 09:25N 33°16' E 131°40'0 0.0
2018-Jan-20 08:55N 33°16' E 131°40'0 0.0
2018-Jan-20 08:28N 33°16' E 131°40'0 0.0
2018-Jan-20 07:58N 33°16' E 131°40'0 0.0
2018-Jan-20 07:28N 33°16' E 131°40'0 0.0
2018-Jan-20 06:58N 33°16' E 131°40'0 0.0
2018-Jan-20 06:28N 33°16' E 131°40'0 0.0
2018-Jan-20 05:52N 33°16' E 131°40'0 0.0
2018-Jan-20 05:28N 33°16' E 131°40'0 0.0
2018-Jan-20 04:58N 33°16' E 131°40'0 0.0
2018-Jan-20 04:28N 33°16' E 131°40'0 0.0
2018-Jan-20 03:58N 33°16' E 131°40'0 0.0
2018-Jan-20 03:28N 33°16' E 131°40'0 0.0
2018-Jan-20 02:58N 33°16' E 131°40'1 2.1
2018-Jan-20 02:29N 33°17' E 131°40'2 3.5
2018-Jan-20 01:48N 33°17' E 131°43'0 0.0
2018-Jan-20 01:27N 33°17' E 131°43'0 0.1
2018-Jan-20 00:57N 33°17' E 131°43'0 0.0
2018-Jan-20 00:27N 33°17' E 131°43'0 0.0
2018-Jan-19 23:57N 33°17' E 131°43'0 0.0
2018-Jan-19 23:27N 33°17' E 131°43'0 0.0
2018-Jan-19 23:00N 33°17' E 131°43'0 0.0
2018-Jan-19 22:30N 33°17' E 131°43'0 0.0
2018-Jan-19 22:00N 33°17' E 131°43'0 0.1
2018-Jan-19 21:30N 33°17' E 131°43'0 0.0
2018-Jan-19 21:00N 33°17' E 131°43'0 0.0
2018-Jan-19 20:18N 33°17' E 131°43'0 0.0
2018-Jan-19 19:54N 33°17' E 131°43'0 0.0
2018-Jan-19 19:26N 33°17' E 131°43'0 0.1
2018-Jan-19 18:51N 33°17' E 131°43'0 0.0
2018-Jan-19 18:27N 33°17' E 131°43'0 0.0
2018-Jan-19 17:45N 33°17' E 131°43'0 0.0
2018-Jan-19 17:27N 33°17' E 131°43'0 0.0
2018-Jan-19 17:00N 33°17' E 131°43'0 0.0
2018-Jan-19 16:27N 33°17' E 131°43'0 0.0
2018-Jan-19 15:57N 33°17' E 131°43'0 0.0
2018-Jan-19 15:30N 33°17' E 131°43'0 0.0
2018-Jan-19 15:00N 33°17' E 131°43'0 0.0
2018-Jan-19 14:30N 33°17' E 131°43'0 0.0
2018-Jan-19 13:57N 33°17' E 131°43'0 0.0
2018-Jan-19 13:27N 33°17' E 131°43'0 0.0
2018-Jan-19 12:57N 33°17' E 131°43'0 0.0
2018-Jan-19 12:27N 33°17' E 131°43'0 0.0
2018-Jan-19 11:45N 33°17' E 131°43'0 0.0
2018-Jan-19 11:21N 33°17' E 131°43'0 0.0
2018-Jan-19 11:00N 33°17' E 131°43'0 0.0
2018-Jan-19 10:27N 33°17' E 131°43'0 0.0
2018-Jan-19 09:57N 33°17' E 131°43'0 0.0
2018-Jan-19 09:30N 33°17' E 131°43'0 0.0
2018-Jan-19 08:42N 33°17' E 131°43'0 0.0
2018-Jan-19 08:09N 33°17' E 131°43'0 0.0
2018-Jan-19 07:57N 33°17' E 131°43'0 0.0
2018-Jan-19 07:30N 33°17' E 131°43'0 0.0
2018-Jan-19 06:45N 33°17' E 131°43'0 0.0
2018-Jan-19 06:30N 33°17' E 131°43'0 0.0
2018-Jan-19 05:45N 33°17' E 131°43'0 0.0
2018-Jan-19 05:09N 33°17' E 131°43'0 0.1
2018-Jan-19 04:45N 33°17' E 131°43'0 0.0
2018-Jan-19 04:30N 33°17' E 131°43'0 0.1
2018-Jan-19 03:57N 33°17' E 131°43'0 0.1
2018-Jan-19 03:27N 33°17' E 131°43'0 0.1
2018-Jan-19 02:57N 33°17' E 131°43'0 0.0
2018-Jan-19 02:27N 33°17' E 131°43'0 0.0
2018-Jan-19 02:00N 33°17' E 131°43'0 0.0
2018-Jan-19 01:27N 33°17' E 131°43'0 0.0
2018-Jan-19 00:54N 33°17' E 131°43'0 0.0
2018-Jan-19 00:30N 33°17' E 131°43'0 0.0
2018-Jan-19 00:00N 33°17' E 131°43'0 0.0
2018-Jan-18 23:21N 33°17' E 131°43'0 0.1
2018-Jan-18 23:00N 33°17' E 131°43'0 0.2
2018-Jan-18 22:28N 33°17' E 131°43'0 0.0
2018-Jan-18 21:59N 33°17' E 131°43'0 0.0
2018-Jan-18 21:29N 33°17' E 131°43'0 0.0
2018-Jan-18 21:00N 33°17' E 131°43'0 0.1
2018-Jan-18 20:30N 33°17' E 131°43'1 1.1
2018-Jan-18 20:00N 33°18' E 131°43'711.8
2018-Jan-18 19:25N 33°24' E 131°46'512.2
2018-Jan-18 19:00N 33°29' E 131°48'612.5
2018-Jan-18 18:30N 33°35' E 131°48'612.6
2018-Jan-18 18:00N 33°41' E 131°45'612.0
2018-Jan-18 17:30N 33°46' E 131°41'612.8
2018-Jan-18 17:00N 33°47' E 131°33'612.6
2018-Jan-18 16:30N 33°48' E 131°26'612.4
2018-Jan-18 16:00N 33°49' E 131°18'612.5
2018-Jan-18 15:30N 33°51' E 131°11'612.4
2018-Jan-18 15:00N 33°55' E 131°05'611.4
2018-Jan-18 14:30N 33°58' E 130°60'5 9.7
2018-Jan-18 14:00N 33°55' E 130°56'4 7.6
2018-Jan-18 13:30N 33°57' E 130°52'2 3.4
2018-Jan-18 13:00N 33°58' E 130°52'0 0.0
2018-Jan-18 12:30N 33°58' E 130°52'0 0.0
2018-Jan-18 11:59N 33°58' E 130°52'0 0.0
2018-Jan-18 11:29N 33°58' E 130°52'0 0.0
2018-Jan-18 10:59N 33°58' E 130°52'0 0.0
2018-Jan-18 10:29N 33°58' E 130°52'0 0.0
2018-Jan-18 09:59N 33°58' E 130°52'0 0.0
2018-Jan-18 09:29N 33°58' E 130°52'0 0.0
2018-Jan-18 08:56N 33°58' E 130°52'0 0.0
2018-Jan-18 08:29N 33°58' E 130°52'0 0.0
2018-Jan-18 07:59N 33°58' E 130°52'0 0.0
2018-Jan-18 07:29N 33°58' E 130°52'0 0.0
2018-Jan-18 06:59N 33°58' E 130°52'0 0.0
2018-Jan-18 06:29N 33°58' E 130°52'0 0.0
2018-Jan-18 05:56N 33°58' E 130°52'0 0.0
2018-Jan-18 05:29N 33°58' E 130°52'0 0.0
2018-Jan-18 04:59N 33°58' E 130°52'0 0.0
2018-Jan-18 04:26N 33°58' E 130°52'0 0.0
2018-Jan-18 03:56N 33°58' E 130°52'0 0.0
2018-Jan-18 03:29N 33°58' E 130°52'0 0.1
2018-Jan-18 03:01N 33°58' E 130°52'2 4.1
2018-Jan-18 02:30N 34°00' E 130°52'5 9.4
2018-Jan-18 02:00N 34°02' E 130°46'610.9
2018-Jan-18 01:30N 34°02' E 130°40'510.7
2018-Jan-18 01:00N 34°02' E 130°33'1010.4
2018-Jan-18 00:00N 33°60' E 130°21'110.4
2018-Jan-17 23:57N 33°60' E 130°21'  
2018-Jan-12 15:00N 23°29' E 119°53'813.3
2018-Jan-12 14:26N 23°36' E 119°55'  
Track history (hours):
 
Tides and Currents Weather Stations Pressure Air Temp Water Temp Dewpoint Dewpoint Depression Visibility Wind Speed Wind Dir Waves Ship Positions

109 Hyodong Chemi

Last reported at 2018-Jan-21 15:08 UTC. Time now 2018-Jan-23 07:59 UTC.
Position N 34°03' E 129°59'.

Length 87 m; draft 6.5 m.

Type: Tanker. MMSI: 440351000.

Date/timePositionNaut miles runAvg speedWind from/ knotsBaromVisibWave heightAir tempDewpointWater temp
2018-Jan-21 15:08N 34°03' E 129°59'110.4
2018-Jan-21 15:00N 34°03' E 130°01'510.6
2018-Jan-21 14:30N 34°03' E 130°07'510.6
2018-Jan-21 14:00N 34°03' E 130°14'510.6
2018-Jan-21 13:31N 34°03' E 130°20'510.8
2018-Jan-21 13:00N 34°04' E 130°27'510.7
2018-Jan-21 12:30N 34°03' E 130°33'510.7
2018-Jan-21 12:00N 34°03' E 130°39'510.5
2018-Jan-21 11:30N 34°03' E 130°46'510.1
2018-Jan-21 11:00N 34°01' E 130°51'4 8.3
2018-Jan-21 10:30N 33°57' E 130°52'3 7.0
2018-Jan-21 10:00N 33°55' E 130°56'4 7.3
2018-Jan-21 09:30N 33°58' E 130°58'4 7.6
2018-Jan-21 09:00N 33°58' E 131°02'5 9.9
2018-Jan-21 08:30N 33°55' E 131°07'5 9.8
2018-Jan-21 08:00N 33°52' E 131°12'510.1
2018-Jan-21 07:30N 33°51' E 131°18'510.2
2018-Jan-21 07:00N 33°50' E 131°24'510.2
2018-Jan-21 06:30N 33°48' E 131°30'5 9.8
2018-Jan-21 06:00N 33°48' E 131°36'5 9.6
2018-Jan-21 05:30N 33°46' E 131°41'4 8.8
2018-Jan-21 05:00N 33°44' E 131°45'5 9.9
2018-Jan-21 04:30N 33°39' E 131°48'5 9.8
2018-Jan-21 04:00N 33°35' E 131°50'5 9.3
2018-Jan-21 03:30N 33°30' E 131°50'510.7
2018-Jan-21 03:00N 33°26' E 131°46'511.0
2018-Jan-21 02:30N 33°21' E 131°43'510.4
2018-Jan-21 02:00N 33°16' E 131°40'0 0.9
2018-Jan-21 01:28N 33°16' E 131°40'0 0.0
2018-Jan-21 00:55N 33°16' E 131°40'0 0.0
2018-Jan-21 00:28N 33°16' E 131°40'0 0.0
2018-Jan-20 23:55N 33°16' E 131°40'0 0.0
2018-Jan-20 23:28N 33°16' E 131°40'0 0.0
2018-Jan-20 22:58N 33°16' E 131°40'0 0.0
2018-Jan-20 22:28N 33°16' E 131°40'0 0.0
2018-Jan-20 21:55N 33°16' E 131°40'0 0.0
2018-Jan-20 21:28N 33°16' E 131°40'0 0.0
2018-Jan-20 20:55N 33°16' E 131°40'0 0.0
2018-Jan-20 20:22N 33°16' E 131°40'0 0.0
2018-Jan-20 19:58N 33°16' E 131°40'0 0.0
2018-Jan-20 19:16N 33°16' E 131°40'0 0.0
2018-Jan-20 18:58N 33°16' E 131°40'0 0.0
2018-Jan-20 18:25N 33°16' E 131°40'0 0.0
2018-Jan-20 17:58N 33°16' E 131°40'0 0.0
2018-Jan-20 17:25N 33°16' E 131°40'0 0.0
2018-Jan-20 16:58N 33°16' E 131°40'0 0.0
2018-Jan-20 16:28N 33°16' E 131°40'0 0.0
2018-Jan-20 15:58N 33°16' E 131°40'0 0.0
2018-Jan-20 15:22N 33°16' E 131°40'0 0.0
2018-Jan-20 14:55N 33°16' E 131°40'0 0.0
2018-Jan-20 14:28N 33°16' E 131°40'0 0.0
2018-Jan-20 13:58N 33°16' E 131°40'0 0.0
2018-Jan-20 13:22N 33°16' E 131°40'0 0.0
2018-Jan-20 12:58N 33°16' E 131°40'0 0.0
2018-Jan-20 12:28N 33°16' E 131°40'0 0.0
2018-Jan-20 11:58N 33°16' E 131°40'0 0.0
2018-Jan-20 11:28N 33°16' E 131°40'0 0.0
2018-Jan-20 10:58N 33°16' E 131°40'0 0.0
2018-Jan-20 10:28N 33°16' E 131°40'0 0.0
2018-Jan-20 09:55N 33°16' E 131°40'0 0.0
2018-Jan-20 09:25N 33°16' E 131°40'0 0.0
2018-Jan-20 08:55N 33°16' E 131°40'0 0.0
2018-Jan-20 08:28N 33°16' E 131°40'0 0.0
2018-Jan-20 07:58N 33°16' E 131°40'0 0.0
2018-Jan-20 07:28N 33°16' E 131°40'0 0.0
2018-Jan-20 06:58N 33°16' E 131°40'0 0.0
2018-Jan-20 06:28N 33°16' E 131°40'0 0.0
2018-Jan-20 05:52N 33°16' E 131°40'0 0.0
2018-Jan-20 05:28N 33°16' E 131°40'0 0.0
2018-Jan-20 04:58N 33°16' E 131°40'0 0.0
2018-Jan-20 04:28N 33°16' E 131°40'0 0.0
2018-Jan-20 03:58N 33°16' E 131°40'0 0.0
2018-Jan-20 03:28N 33°16' E 131°40'0 0.0
2018-Jan-20 02:58N 33°16' E 131°40'1 2.1
2018-Jan-20 02:29N 33°17' E 131°40'2 3.5
2018-Jan-20 01:48N 33°17' E 131°43'0 0.0
2018-Jan-20 01:27N 33°17' E 131°43'0 0.1
2018-Jan-20 00:57N 33°17' E 131°43'0 0.0
2018-Jan-20 00:27N 33°17' E 131°43'0 0.0
2018-Jan-19 23:57N 33°17' E 131°43'0 0.0
2018-Jan-19 23:27N 33°17' E 131°43'0 0.0
2018-Jan-19 23:00N 33°17' E 131°43'0 0.0
2018-Jan-19 22:30N 33°17' E 131°43'0 0.0
2018-Jan-19 22:00N 33°17' E 131°43'0 0.1
2018-Jan-19 21:30N 33°17' E 131°43'0 0.0
2018-Jan-19 21:00N 33°17' E 131°43'0 0.0
2018-Jan-19 20:18N 33°17' E 131°43'0 0.0
2018-Jan-19 19:54N 33°17' E 131°43'0 0.0
2018-Jan-19 19:26N 33°17' E 131°43'0 0.1
2018-Jan-19 18:51N 33°17' E 131°43'0 0.0
2018-Jan-19 18:27N 33°17' E 131°43'0 0.0
2018-Jan-19 17:45N 33°17' E 131°43'0 0.0
2018-Jan-19 17:27N 33°17' E 131°43'0 0.0
2018-Jan-19 17:00N 33°17' E 131°43'0 0.0
2018-Jan-19 16:27N 33°17' E 131°43'0 0.0
2018-Jan-19 15:57N 33°17' E 131°43'0 0.0
2018-Jan-19 15:30N 33°17' E 131°43'0 0.0
2018-Jan-19 15:00N 33°17' E 131°43'0 0.0
2018-Jan-19 14:30N 33°17' E 131°43'0 0.0
2018-Jan-19 13:57N 33°17' E 131°43'0 0.0
2018-Jan-19 13:27N 33°17' E 131°43'0 0.0
2018-Jan-19 12:57N 33°17' E 131°43'0 0.0
2018-Jan-19 12:27N 33°17' E 131°43'0 0.0
2018-Jan-19 11:45N 33°17' E 131°43'0 0.0
2018-Jan-19 11:21N 33°17' E 131°43'0 0.0
2018-Jan-19 11:00N 33°17' E 131°43'0 0.0
2018-Jan-19 10:27N 33°17' E 131°43'0 0.0
2018-Jan-19 09:57N 33°17' E 131°43'0 0.0
2018-Jan-19 09:30N 33°17' E 131°43'0 0.0
2018-Jan-19 08:42N 33°17' E 131°43'0 0.0
2018-Jan-19 08:09N 33°17' E 131°43'0 0.0
2018-Jan-19 07:57N 33°17' E 131°43'0 0.0
2018-Jan-19 07:30N 33°17' E 131°43'0 0.0
2018-Jan-19 06:45N 33°17' E 131°43'0 0.0
2018-Jan-19 06:30N 33°17' E 131°43'0 0.0
2018-Jan-19 05:45N 33°17' E 131°43'0 0.0
2018-Jan-19 05:09N 33°17' E 131°43'0 0.1
2018-Jan-19 04:45N 33°17' E 131°43'0 0.0
2018-Jan-19 04:30N 33°17' E 131°43'0 0.1
2018-Jan-19 03:57N 33°17' E 131°43'0 0.1
2018-Jan-19 03:27N 33°17' E 131°43'0 0.1
2018-Jan-19 02:57N 33°17' E 131°43'0 0.0
2018-Jan-19 02:27N 33°17' E 131°43'0 0.0
2018-Jan-19 02:00N 33°17' E 131°43'0 0.0
2018-Jan-19 01:27N 33°17' E 131°43'0 0.0
2018-Jan-19 00:54N 33°17' E 131°43'0 0.0
2018-Jan-19 00:30N 33°17' E 131°43'0 0.0
2018-Jan-19 00:00N 33°17' E 131°43'0 0.0
2018-Jan-18 23:21N 33°17' E 131°43'0 0.1
2018-Jan-18 23:00N 33°17' E 131°43'0 0.2
2018-Jan-18 22:28N 33°17' E 131°43'0 0.0
2018-Jan-18 21:59N 33°17' E 131°43'0 0.0
2018-Jan-18 21:29N 33°17' E 131°43'0 0.0
2018-Jan-18 21:00N 33°17' E 131°43'0 0.1
2018-Jan-18 20:30N 33°17' E 131°43'1 1.1
2018-Jan-18 20:00N 33°18' E 131°43'711.8
2018-Jan-18 19:25N 33°24' E 131°46'512.2
2018-Jan-18 19:00N 33°29' E 131°48'612.5
2018-Jan-18 18:30N 33°35' E 131°48'612.6
2018-Jan-18 18:00N 33°41' E 131°45'612.0
2018-Jan-18 17:30N 33°46' E 131°41'612.8
2018-Jan-18 17:00N 33°47' E 131°33'612.6
2018-Jan-18 16:30N 33°48' E 131°26'612.4
2018-Jan-18 16:00N 33°49' E 131°18'612.5
2018-Jan-18 15:30N 33°51' E 131°11'612.4
2018-Jan-18 15:00N 33°55' E 131°05'611.4
2018-Jan-18 14:30N 33°58' E 130°60'5 9.7
2018-Jan-18 14:00N 33°55' E 130°56'4 7.6
2018-Jan-18 13:30N 33°57' E 130°52'2 3.4
2018-Jan-18 13:00N 33°58' E 130°52'0 0.0
2018-Jan-18 12:30N 33°58' E 130°52'0 0.0
2018-Jan-18 11:59N 33°58' E 130°52'0 0.0
2018-Jan-18 11:29N 33°58' E 130°52'0 0.0
2018-Jan-18 10:59N 33°58' E 130°52'0 0.0
2018-Jan-18 10:29N 33°58' E 130°52'0 0.0
2018-Jan-18 09:59N 33°58' E 130°52'0 0.0
2018-Jan-18 09:29N 33°58' E 130°52'0 0.0
2018-Jan-18 08:56N 33°58' E 130°52'0 0.0
2018-Jan-18 08:29N 33°58' E 130°52'0 0.0
2018-Jan-18 07:59N 33°58' E 130°52'0 0.0
2018-Jan-18 07:29N 33°58' E 130°52'0 0.0
2018-Jan-18 06:59N 33°58' E 130°52'0 0.0
2018-Jan-18 06:29N 33°58' E 130°52'0 0.0
2018-Jan-18 05:56N 33°58' E 130°52'0 0.0
2018-Jan-18 05:29N 33°58' E 130°52'0 0.0
2018-Jan-18 04:59N 33°58' E 130°52'0 0.0
2018-Jan-18 04:26N 33°58' E 130°52'0 0.0
2018-Jan-18 03:56N 33°58' E 130°52'0 0.0
2018-Jan-18 03:29N 33°58' E 130°52'0 0.1
2018-Jan-18 03:01N 33°58' E 130°52'2 4.1
2018-Jan-18 02:30N 34°00' E 130°52'5 9.4
2018-Jan-18 02:00N 34°02' E 130°46'610.9
2018-Jan-18 01:30N 34°02' E 130°40'510.7
2018-Jan-18 01:00N 34°02' E 130°33'1010.4
2018-Jan-18 00:00N 33°60' E 130°21'110.4
2018-Jan-17 23:57N 33°60' E 130°21'  
2018-Jan-12 15:00N 23°29' E 119°53'813.3
2018-Jan-12 14:26N 23°36' E 119°55'  

Dump ship's entire track history